Baldwin City, Kansas
Current Conditions -  °F | °C
As of 5:15 AM on Sunday 23 Nov 2014 (Local Time) from KLWC Reporting Station
Overcast Overcast  
Wind Chill: 53°   Ceiling: 900
Heat Index: 53°   Visibility: 7mi
Dew Point: 50°   Wind: 12mph
Humidity: 89%   Direction: 140°SE
Pressure: 29.54"   Gusts: NA
Location:  38.78°N, 95.19°W
Report Text: KLWC 231115Z AUTO 14010KT 7SM OVC009 12/10 A2954 RMK AO2 T01170100
Loading
Personal Weather Stations






























Interactive Weather Map New forecast layout! Learn more

10-Day Weather Forecast

Advertisements
Track Severe Weather on mobile